createdAt,value
2023-05-10T00:00:59.319Z,5.93
2023-05-10T00:03:26.941Z,5.35
2023-05-10T00:05:54.538Z,4.07
2023-05-10T00:08:22.562Z,4.03
2023-05-10T00:10:50.405Z,4.80
2023-05-10T00:13:19.352Z,4.35
2023-05-10T00:15:46.983Z,5.88
2023-05-10T00:18:14.564Z,4.35
2023-05-10T00:20:42.163Z,6.85
2023-05-10T00:23:09.730Z,3.90
2023-05-10T00:25:37.299Z,4.43
2023-05-10T00:28:05.094Z,4.53
2023-05-10T00:30:33.983Z,5.35
2023-05-10T00:33:03.902Z,6.05
2023-05-10T00:35:31.575Z,4.45
2023-05-10T00:37:59.111Z,4.20
2023-05-10T00:40:26.884Z,5.55
2023-05-10T00:42:59.538Z,8.38
2023-05-10T00:45:27.960Z,4.45
2023-05-10T00:47:57.113Z,4.70
2023-05-10T00:50:25.470Z,4.38
2023-05-10T00:52:53.191Z,4.03
2023-05-10T00:55:22.450Z,6.15
2023-05-10T00:57:50.062Z,3.80
2023-05-10T01:00:19.175Z,5.72
2023-05-10T01:02:47.245Z,4.47
2023-05-10T01:05:16.889Z,4.57
2023-05-10T01:07:44.566Z,3.95
2023-05-10T01:10:12.477Z,3.90
2023-05-10T01:12:42.369Z,5.00
2023-05-10T01:15:12.558Z,4.18
2023-05-10T01:17:42.470Z,5.65
2023-05-10T01:20:12.457Z,3.88
2023-05-10T01:23:04.663Z,5.70
2023-05-10T01:26:23.651Z,7.60
2023-05-10T01:29:08.154Z,4.45
2023-05-10T01:31:55.206Z,4.47
2023-05-10T01:34:29.365Z,4.93
2023-05-10T01:37:01.098Z,4.88
2023-05-10T01:39:38.697Z,4.18
2023-05-10T01:42:12.146Z,5.50
2023-05-10T01:44:44.781Z,5.50
2023-05-10T01:47:19.077Z,4.50
2023-05-10T01:49:51.467Z,3.83
2023-05-10T01:52:24.352Z,4.70
2023-05-10T01:54:57.673Z,4.60
2023-05-10T01:57:28.567Z,6.35
2023-05-10T01:59:57.198Z,4.15
2023-05-10T02:02:27.737Z,3.80
2023-05-10T02:04:56.563Z,5.18
2023-05-10T02:07:25.271Z,4.85
2023-05-10T02:09:53.382Z,4.32
2023-05-10T02:12:22.768Z,5.80
2023-05-10T02:14:52.983Z,6.97
2023-05-10T02:17:20.874Z,4.85
2023-05-10T02:19:51.230Z,4.35
2023-05-10T02:22:20.922Z,4.80
2023-05-10T02:24:49.536Z,5.35
2023-05-10T02:27:18.084Z,5.60
2023-05-10T02:29:46.641Z,5.53
2023-05-10T02:32:15.863Z,6.03
2023-05-10T02:34:45.687Z,7.35
2023-05-10T02:37:16.808Z,4.43
2023-05-10T02:39:46.494Z,5.40
2023-05-10T02:42:18.748Z,6.20
2023-05-10T02:44:49.257Z,5.80
2023-05-10T02:47:16.948Z,5.40
2023-05-10T02:49:44.771Z,5.18
2023-05-10T02:52:12.974Z,4.88
2023-05-10T02:54:47.148Z,4.43
2023-05-10T02:57:20.200Z,4.05
2023-05-10T02:59:47.842Z,4.57
2023-05-10T03:02:15.953Z,4.57
2023-05-10T03:04:43.564Z,4.50
2023-05-10T03:07:11.552Z,3.97
2023-05-10T03:09:39.156Z,4.57
2023-05-10T03:12:23.051Z,4.20
2023-05-10T03:14:58.722Z,5.22
2023-05-10T03:17:32.796Z,4.65
2023-05-10T03:20:06.196Z,4.18
2023-05-10T03:22:39.017Z,5.65
2023-05-10T03:25:09.620Z,4.57
2023-05-10T03:27:42.183Z,12.52
2023-05-10T03:30:12.226Z,5.07
2023-05-10T03:32:40.361Z,5.65
2023-05-10T03:35:09.381Z,5.60
2023-05-10T03:37:37.469Z,6.80
2023-05-10T03:40:06.012Z,4.65
2023-05-10T03:42:35.552Z,5.97
2023-05-10T03:45:04.734Z,4.60
2023-05-10T03:47:32.531Z,7.63
2023-05-10T03:50:00.723Z,6.07
2023-05-10T03:52:28.522Z,3.88
2023-05-10T03:54:56.966Z,5.90
2023-05-10T03:57:25.397Z,4.95
2023-05-10T03:59:53.094Z,5.10
2023-05-10T04:02:22.084Z,7.90
2023-05-10T04:04:50.122Z,5.32
2023-05-10T04:07:18.936Z,4.53
2023-05-10T04:09:46.560Z,5.55
2023-05-10T04:12:14.208Z,5.38
2023-05-10T04:14:41.746Z,4.75
2023-05-10T04:17:09.259Z,6.38
2023-05-10T04:19:38.127Z,6.75
2023-05-10T04:22:05.881Z,6.93
2023-05-10T04:24:33.429Z,5.43
2023-05-10T04:27:01.403Z,6.05
2023-05-10T04:29:29.138Z,5.43
2023-05-10T04:31:57.534Z,4.40
2023-05-10T04:34:25.139Z,4.40
2023-05-10T04:36:54.070Z,5.72
2023-05-10T04:39:21.716Z,7.32
2023-05-10T04:41:49.253Z,3.90
2023-05-10T04:44:16.960Z,4.10
2023-05-10T04:46:44.557Z,5.28
2023-05-10T04:49:12.592Z,6.35
2023-05-10T04:51:40.190Z,7.43
2023-05-10T04:54:09.116Z,7.45
2023-05-10T04:56:36.728Z,5.53
2023-05-10T04:59:04.495Z,5.13
2023-05-10T05:01:32.281Z,5.47
2023-05-10T05:04:00.249Z,4.35
2023-05-10T05:06:28.317Z,7.50
2023-05-10T05:08:56.011Z,5.93
2023-05-10T05:11:25.026Z,6.07
2023-05-10T05:13:52.620Z,6.28
2023-05-10T05:16:20.361Z,4.25
2023-05-10T05:18:48.056Z,8.50
2023-05-10T05:21:16.909Z,4.63
2023-05-10T05:23:44.939Z,11.18
2023-05-10T05:26:12.751Z,4.68
2023-05-10T05:28:41.583Z,4.30
2023-05-10T05:31:10.050Z,6.07
2023-05-10T05:33:38.285Z,4.80
2023-05-10T05:36:07.281Z,6.43
2023-05-10T05:38:34.976Z,4.05
2023-05-10T05:41:02.787Z,5.53
2023-05-10T05:43:30.584Z,5.38
2023-05-10T05:45:59.691Z,4.45
2023-05-10T05:48:27.367Z,4.32
2023-05-10T05:50:57.473Z,7.13
2023-05-10T05:53:25.601Z,5.68
2023-05-10T05:55:54.987Z,4.80
2023-05-10T05:58:23.044Z,5.00
2023-05-10T06:00:51.221Z,4.55
2023-05-10T06:03:20.835Z,5.13
2023-05-10T06:05:48.872Z,6.75
2023-05-10T06:08:16.712Z,4.32
2023-05-10T06:10:45.368Z,4.60
2023-05-10T06:13:13.047Z,4.90
2023-05-10T06:15:40.930Z,6.82
2023-05-10T06:18:08.666Z,4.95
2023-05-10T06:20:37.659Z,5.93
2023-05-10T06:23:05.460Z,5.38
2023-05-10T06:25:33.055Z,4.22
2023-05-10T06:28:00.970Z,4.60
2023-05-10T06:30:30.124Z,6.22
2023-05-10T06:32:58.361Z,5.78
2023-05-10T06:35:26.248Z,7.97
2023-05-10T06:37:55.615Z,5.72
2023-05-10T06:40:23.506Z,5.53
2023-05-10T06:42:51.613Z,5.55
2023-05-10T06:45:21.676Z,5.72
2023-05-10T06:47:49.408Z,5.65
2023-05-10T06:50:17.092Z,5.00
2023-05-10T06:52:44.924Z,4.22
2023-05-10T06:55:14.262Z,4.60
2023-05-10T06:57:42.221Z,4.50
2023-05-10T07:00:11.342Z,4.82
2023-05-10T07:02:39.114Z,3.97
2023-05-10T07:05:07.495Z,6.10
2023-05-10T07:07:35.170Z,4.60
2023-05-10T07:10:02.773Z,4.68
2023-05-10T07:12:31.963Z,4.50
2023-05-10T07:14:59.625Z,4.03
2023-05-10T07:17:27.577Z,4.35
2023-05-10T07:19:55.381Z,7.15
2023-05-10T07:22:23.148Z,5.32
2023-05-10T07:24:50.852Z,4.25
2023-05-10T07:27:18.439Z,7.63
2023-05-10T07:29:47.428Z,5.85
2023-05-10T07:32:15.257Z,5.93
2023-05-10T07:34:43.104Z,4.75
2023-05-10T07:37:10.898Z,5.18
2023-05-10T07:39:38.502Z,4.72
2023-05-10T07:42:06.640Z,4.47
2023-05-10T07:44:34.401Z,6.75
2023-05-10T07:47:06.501Z,5.80
2023-05-10T07:49:34.232Z,4.38
2023-05-10T07:52:05.112Z,4.10
2023-05-10T07:54:32.985Z,5.20
2023-05-10T07:57:03.328Z,7.80
2023-05-10T07:59:35.041Z,6.07
2023-05-10T08:02:03.996Z,4.75
2023-05-10T08:04:31.765Z,5.65
2023-05-10T08:06:59.419Z,5.03
2023-05-10T08:09:27.017Z,4.20
2023-05-10T08:11:54.669Z,3.97
2023-05-10T08:14:25.243Z,4.30
2023-05-10T08:16:52.815Z,4.40
2023-05-10T08:19:22.436Z,5.78
2023-05-10T08:21:50.594Z,3.95
2023-05-10T08:24:18.176Z,4.43
2023-05-10T08:26:45.856Z,4.30
2023-05-10T08:29:13.446Z,6.57
2023-05-10T08:31:41.129Z,4.68
2023-05-10T08:34:08.914Z,4.75
2023-05-10T08:36:39.127Z,6.75
2023-05-10T08:39:13.564Z,4.72
2023-05-10T08:41:49.945Z,5.78
2023-05-10T08:44:19.117Z,6.15
2023-05-10T08:46:48.727Z,4.90
2023-05-10T08:49:19.699Z,4.28
2023-05-10T08:51:57.197Z,4.78
2023-05-10T08:54:25.275Z,5.03
2023-05-10T08:56:54.224Z,4.93
2023-05-10T08:59:22.151Z,5.15
2023-05-10T09:01:51.759Z,5.35
2023-05-10T09:04:19.469Z,10.15
2023-05-10T09:06:48.518Z,5.40
2023-05-10T09:09:17.067Z,6.63
2023-05-10T09:11:45.314Z,6.50
2023-05-10T09:14:14.547Z,8.20
2023-05-10T09:16:42.993Z,4.22
2023-05-10T09:19:10.658Z,4.88
2023-05-10T09:21:39.544Z,5.68
2023-05-10T09:24:10.172Z,5.15
2023-05-10T09:26:48.251Z,6.70
2023-05-10T09:29:17.633Z,6.63
2023-05-10T09:31:48.303Z,6.53
2023-05-10T09:34:20.103Z,5.90
2023-05-10T09:36:58.452Z,5.28
2023-05-10T09:39:34.750Z,5.53
2023-05-10T09:42:05.617Z,6.10
2023-05-10T09:44:34.225Z,5.40
2023-05-10T09:47:02.179Z,5.25
2023-05-10T09:49:30.108Z,7.72
2023-05-10T09:52:06.328Z,5.97
2023-05-10T09:54:36.879Z,5.93
2023-05-10T09:57:04.745Z,6.63
2023-05-10T09:59:35.766Z,6.35
2023-05-10T10:02:04.609Z,5.20
2023-05-10T10:04:55.806Z,5.75
2023-05-10T10:07:26.389Z,7.05
2023-05-10T10:09:55.569Z,9.05
2023-05-10T10:12:23.325Z,8.25
2023-05-10T10:14:52.231Z,8.38
2023-05-10T10:17:20.925Z,6.35
2023-05-10T10:19:50.548Z,6.85
2023-05-10T10:22:19.126Z,9.60
2023-05-10T10:24:47.329Z,8.10
2023-05-10T10:27:27.081Z,7.38
2023-05-10T10:30:08.595Z,7.20
2023-05-10T10:32:48.903Z,7.78
2023-05-10T10:35:17.655Z,7.47
2023-05-10T10:37:47.125Z,7.03
2023-05-10T10:40:30.870Z,7.13
2023-05-10T10:43:26.381Z,9.30
2023-05-10T10:46:14.948Z,7.95
2023-05-10T10:48:43.724Z,8.25
2023-05-10T10:51:12.894Z,7.80
2023-05-10T10:53:42.433Z,7.43
2023-05-10T10:56:11.625Z,8.13
2023-05-10T10:58:41.440Z,8.25
2023-05-10T11:01:16.969Z,7.47
2023-05-10T11:04:19.278Z,7.07
2023-05-10T11:06:46.947Z,7.28
2023-05-10T11:09:15.044Z,8.68
2023-05-10T11:11:55.994Z,7.20
2023-05-10T11:14:25.273Z,7.00
2023-05-10T11:16:53.754Z,7.18
2023-05-10T11:19:21.640Z,7.13
2023-05-10T11:21:50.766Z,8.73
2023-05-10T11:24:19.884Z,7.78
2023-05-10T11:26:50.186Z,7.70
2023-05-10T11:29:18.315Z,7.47
2023-05-10T11:31:48.595Z,7.75
2023-05-10T11:34:25.336Z,7.72
2023-05-10T11:36:54.801Z,9.73
2023-05-10T11:39:27.602Z,7.95
2023-05-10T11:41:55.913Z,8.20
2023-05-10T11:44:23.583Z,8.32
2023-05-10T11:46:53.141Z,8.43
2023-05-10T11:49:21.345Z,8.75
2023-05-10T11:51:49.357Z,8.13
2023-05-10T11:54:16.963Z,8.48
2023-05-10T11:56:45.758Z,7.70
2023-05-10T11:59:16.279Z,7.20
2023-05-10T12:01:44.036Z,7.43
2023-05-10T12:04:13.200Z,7.53
2023-05-10T12:06:42.711Z,8.20
2023-05-10T12:09:11.276Z,7.90
2023-05-10T12:11:43.518Z,6.93
2023-05-10T12:14:12.178Z,9.15
2023-05-10T12:16:39.881Z,6.72
2023-05-10T12:19:07.553Z,7.63
2023-05-10T12:21:36.552Z,8.20
2023-05-10T12:24:06.203Z,7.43
2023-05-10T12:26:33.994Z,7.05
2023-05-10T12:29:16.572Z,7.15
2023-05-10T12:31:57.833Z,9.90
2023-05-10T12:34:27.084Z,7.65
2023-05-10T12:36:56.684Z,7.72
2023-05-10T12:39:24.449Z,7.65
2023-05-10T12:41:53.783Z,8.48
2023-05-10T12:44:21.341Z,8.60
2023-05-10T12:46:48.922Z,8.50
2023-05-10T12:49:16.500Z,7.85
2023-05-10T12:51:44.209Z,7.63
2023-05-10T12:54:13.246Z,7.63
2023-05-10T12:56:41.803Z,7.07
2023-05-10T12:59:11.528Z,7.72
2023-05-10T13:01:41.210Z,6.65
2023-05-10T13:04:08.961Z,5.90
2023-05-10T13:06:36.852Z,6.18
2023-05-10T13:09:04.694Z,6.95
2023-05-10T13:11:33.663Z,5.65
2023-05-10T13:14:07.212Z,4.85
2023-05-10T13:16:35.382Z,4.82
2023-05-10T13:19:03.844Z,4.38
2023-05-10T13:21:31.529Z,4.85
2023-05-10T13:23:59.498Z,4.68
2023-05-10T13:26:27.215Z,4.88
2023-05-10T13:28:56.512Z,6.97
2023-05-10T13:31:24.211Z,4.70
2023-05-10T13:33:51.917Z,8.27
2023-05-10T13:36:19.526Z,5.32
2023-05-10T13:38:47.193Z,5.97
2023-05-10T13:41:17.335Z,6.47
2023-05-10T13:43:45.384Z,5.43
2023-05-10T13:46:14.392Z,5.40
2023-05-10T13:48:42.071Z,5.03
2023-05-10T13:51:09.632Z,5.55
2023-05-10T13:53:37.586Z,5.40
2023-05-10T13:56:08.543Z,6.63
2023-05-10T13:58:37.339Z,5.50
2023-05-10T14:01:05.784Z,6.50
2023-05-10T14:03:34.986Z,5.97
2023-05-10T14:06:03.357Z,5.68
2023-05-10T14:08:30.850Z,5.93
2023-05-10T14:10:58.457Z,6.40
2023-05-10T14:13:26.552Z,5.80
2023-05-10T14:15:55.521Z,6.55
2023-05-10T14:18:23.144Z,6.50
2023-05-10T14:20:52.105Z,5.32
2023-05-10T14:23:20.793Z,5.18
2023-05-10T14:25:48.357Z,5.65
2023-05-10T14:28:16.767Z,5.45
2023-05-10T14:30:44.362Z,5.45
2023-05-10T14:33:12.234Z,4.78
2023-05-10T14:35:39.883Z,5.18
2023-05-10T14:38:08.904Z,4.35
2023-05-10T14:40:36.787Z,4.78
2023-05-10T14:43:04.352Z,5.80
2023-05-10T14:45:32.161Z,5.50
2023-05-10T14:48:00.180Z,6.25
2023-05-10T14:50:36.582Z,5.57
2023-05-10T14:53:05.190Z,5.07
2023-05-10T14:55:35.655Z,4.63
2023-05-10T14:58:03.919Z,5.88
2023-05-10T15:00:32.745Z,5.80
2023-05-10T15:03:00.997Z,5.47
2023-05-10T15:05:29.265Z,5.60
2023-05-10T15:07:57.126Z,5.53
2023-05-10T15:10:25.056Z,5.32
2023-05-10T15:12:55.096Z,5.93
2023-05-10T15:15:22.801Z,5.65
2023-05-10T15:17:50.602Z,5.55
2023-05-10T15:20:18.221Z,5.55
2023-05-10T15:22:45.908Z,6.18
2023-05-10T15:25:14.181Z,7.82
2023-05-10T15:27:41.821Z,5.75
2023-05-10T15:30:12.151Z,6.97
2023-05-10T15:32:41.000Z,6.88
2023-05-10T15:35:10.341Z,6.35
2023-05-10T15:37:37.983Z,8.25
2023-05-10T15:40:06.675Z,6.05
2023-05-10T15:42:34.314Z,8.27
2023-05-10T15:45:02.115Z,5.85
2023-05-10T15:47:31.808Z,5.05
2023-05-10T15:49:59.388Z,5.57
2023-05-10T15:52:27.246Z,5.20
2023-05-10T15:54:54.900Z,6.15
2023-05-10T15:57:22.726Z,5.72
2023-05-10T15:59:50.746Z,10.13
2023-05-10T16:02:19.362Z,11.13
2023-05-10T16:04:48.387Z,9.13
2023-05-10T16:07:15.992Z,9.90
2023-05-10T16:09:44.039Z,9.95
2023-05-10T16:12:11.723Z,9.10
2023-05-10T16:14:39.489Z,8.52
2023-05-10T16:17:07.644Z,8.23
2023-05-10T16:19:35.542Z,8.43
2023-05-10T16:22:04.616Z,9.15
2023-05-10T16:24:32.241Z,8.85
2023-05-10T16:26:59.989Z,8.65
2023-05-10T16:29:27.759Z,9.07
2023-05-10T16:31:55.535Z,10.20
2023-05-10T16:34:24.298Z,14.07
2023-05-10T16:36:51.987Z,8.52
2023-05-10T16:39:21.340Z,7.85
2023-05-10T16:41:48.889Z,8.85
2023-05-10T16:44:18.143Z,9.18
2023-05-10T16:46:47.303Z,7.30
2023-05-10T16:49:15.055Z,9.57
2023-05-10T16:51:42.677Z,7.03
2023-05-10T16:54:10.315Z,6.82
2023-05-10T16:56:39.423Z,7.15
2023-05-10T16:59:06.997Z,6.72
2023-05-10T17:01:34.845Z,8.05
2023-05-10T17:04:02.653Z,9.13
2023-05-10T17:06:31.233Z,7.45
2023-05-10T17:08:58.879Z,9.63
2023-05-10T17:11:27.478Z,13.13
2023-05-10T17:13:56.417Z,9.60
2023-05-10T17:16:24.177Z,11.23
2023-05-10T17:18:51.993Z,8.73
2023-05-10T17:21:19.654Z,9.80
2023-05-10T17:23:47.266Z,14.57
2023-05-10T17:26:14.995Z,6.75
2023-05-10T17:28:42.553Z,7.43
2023-05-10T17:31:11.783Z,7.53
2023-05-10T17:33:39.562Z,6.78
2023-05-10T17:36:07.732Z,6.78
2023-05-10T17:38:37.908Z,9.13
2023-05-10T17:41:12.101Z,8.82
2023-05-10T17:43:39.714Z,8.70
2023-05-10T17:46:07.406Z,8.73
2023-05-10T17:48:36.944Z,9.15
2023-05-10T17:51:05.113Z,10.05
2023-05-10T17:53:32.793Z,10.52
2023-05-10T17:56:01.546Z,11.15
2023-05-10T17:58:30.299Z,9.98
2023-05-10T18:00:58.113Z,8.98
2023-05-10T18:03:25.896Z,9.35
2023-05-10T18:05:55.277Z,8.73
2023-05-10T18:08:26.719Z,8.52
2023-05-10T18:10:54.529Z,7.70
2023-05-10T18:13:22.113Z,7.35
2023-05-10T18:15:49.755Z,6.53
2023-05-10T18:18:17.505Z,8.25
2023-05-10T18:20:46.332Z,6.22
2023-05-10T18:23:15.518Z,6.25
2023-05-10T18:25:43.068Z,7.65
2023-05-10T18:28:10.748Z,5.97
2023-05-10T18:30:38.679Z,7.20
2023-05-10T18:33:06.582Z,6.28
2023-05-10T18:35:35.222Z,6.35
2023-05-10T18:38:03.143Z,7.22
2023-05-10T18:40:32.207Z,7.45
2023-05-10T18:43:00.104Z,7.35
2023-05-10T18:45:27.967Z,7.40
2023-05-10T18:47:55.587Z,7.82
2023-05-10T18:50:23.359Z,7.22
2023-05-10T18:52:51.165Z,7.57
2023-05-10T18:55:19.388Z,8.23
2023-05-10T18:57:48.476Z,11.57
2023-05-10T19:00:16.431Z,8.45
2023-05-10T19:02:44.105Z,8.82
2023-05-10T19:05:16.638Z,7.20
2023-05-10T19:07:44.562Z,6.25
2023-05-10T19:10:13.753Z,6.13
2023-05-10T19:12:42.281Z,7.38
2023-05-10T19:15:11.915Z,6.10
2023-05-10T19:17:42.002Z,4.78
2023-05-10T19:20:12.118Z,6.00
2023-05-10T19:25:10.963Z,5.30
2023-05-10T19:27:38.618Z,6.57
2023-05-10T19:30:07.815Z,8.68
2023-05-10T19:32:36.986Z,4.60
2023-05-10T19:35:04.943Z,4.50
2023-05-10T19:37:32.570Z,5.78
2023-05-10T19:40:00.215Z,5.07
2023-05-10T19:42:27.787Z,4.57
2023-05-10T19:44:55.374Z,5.25
2023-05-10T19:47:22.999Z,5.25
2023-05-10T19:49:52.003Z,5.00
2023-05-10T19:52:19.632Z,5.25
2023-05-10T19:54:47.199Z,4.70
2023-05-10T19:57:14.934Z,5.10
2023-05-10T19:59:42.626Z,5.15
2023-05-10T20:02:10.271Z,5.28
2023-05-10T20:04:37.877Z,4.65
2023-05-10T20:07:06.806Z,4.97
2023-05-10T20:09:34.512Z,5.40
2023-05-10T20:12:02.435Z,5.72
2023-05-10T20:14:30.026Z,5.47
2023-05-10T20:16:57.677Z,5.70
2023-05-10T20:19:25.988Z,6.22
2023-05-10T20:21:55.957Z,5.97
2023-05-10T20:24:24.953Z,6.32
2023-05-10T20:26:52.563Z,6.45
2023-05-10T20:29:20.140Z,7.15
2023-05-10T20:31:47.776Z,7.88
2023-05-10T20:34:15.462Z,7.20
2023-05-10T20:36:42.975Z,6.57
2023-05-10T20:39:10.720Z,6.60
2023-05-10T20:41:40.205Z,8.18
2023-05-10T20:44:07.767Z,7.38
2023-05-10T20:46:35.416Z,9.25
2023-05-10T20:49:04.118Z,7.30
2023-05-10T20:51:33.217Z,8.00
2023-05-10T20:54:01.688Z,7.72
2023-05-10T20:56:29.476Z,7.80
2023-05-10T20:58:58.348Z,9.10
2023-05-10T21:01:26.332Z,8.40
2023-05-10T21:03:53.956Z,8.77
2023-05-10T21:06:21.622Z,9.93
2023-05-10T21:08:49.292Z,9.38
2023-05-10T21:11:17.067Z,9.15
2023-05-10T21:13:45.157Z,9.13
2023-05-10T21:16:14.363Z,10.57
2023-05-10T21:18:42.171Z,9.73
2023-05-10T21:21:09.918Z,11.13
2023-05-10T21:23:37.824Z,10.63
2023-05-10T21:26:06.430Z,11.15
2023-05-10T21:28:34.382Z,10.60
2023-05-10T21:31:02.406Z,10.98
2023-05-10T21:33:31.408Z,12.32
2023-05-10T21:35:59.152Z,11.40
2023-05-10T21:38:28.566Z,12.68
2023-05-10T21:40:56.193Z,11.38
2023-05-10T21:43:23.856Z,13.05
2023-05-10T21:45:51.505Z,11.40
2023-05-10T21:48:19.735Z,11.27
2023-05-10T21:50:48.742Z,11.75
2023-05-10T21:53:16.404Z,13.88
2023-05-10T21:55:44.027Z,12.40
2023-05-10T21:58:11.749Z,13.30
2023-05-10T22:00:39.408Z,12.77
2023-05-10T22:03:07.256Z,13.57
2023-05-10T22:05:34.999Z,14.43
2023-05-10T22:08:04.011Z,14.15
2023-05-10T22:10:31.698Z,13.02
2023-05-10T22:12:59.934Z,16.35
2023-05-10T22:15:28.105Z,12.45
2023-05-10T22:17:55.945Z,13.25
2023-05-10T22:20:23.687Z,15.27
2023-05-10T22:22:51.385Z,14.25
2023-05-10T22:25:20.571Z,15.70
2023-05-10T22:27:48.414Z,16.00
2023-05-10T22:30:16.932Z,14.75
2023-05-10T22:32:44.912Z,15.40
2023-05-10T22:35:12.673Z,14.65
2023-05-10T22:37:40.452Z,15.70
2023-05-10T22:40:09.271Z,13.73
2023-05-10T22:42:38.391Z,16.92
2023-05-10T22:45:07.055Z,13.73
2023-05-10T22:47:34.769Z,16.00
2023-05-10T22:50:04.128Z,15.05
2023-05-10T22:52:31.809Z,15.70
2023-05-10T22:54:59.827Z,15.20
2023-05-10T22:57:27.946Z,17.30
2023-05-10T22:59:56.990Z,19.10
2023-05-10T23:02:24.798Z,18.08
2023-05-10T23:04:52.372Z,15.75
2023-05-10T23:07:20.068Z,15.82
2023-05-10T23:09:47.702Z,16.70
2023-05-10T23:12:15.687Z,19.63
2023-05-10T23:14:45.462Z,18.55
2023-05-10T23:17:14.524Z,15.93
2023-05-10T23:19:42.221Z,18.58
2023-05-10T23:22:10.098Z,17.35
2023-05-10T23:24:39.063Z,17.83
2023-05-10T23:27:06.742Z,18.58
2023-05-10T23:29:34.760Z,20.05
2023-05-10T23:32:02.633Z,21.60
2023-05-10T23:34:32.221Z,18.65
2023-05-10T23:36:59.871Z,17.83
2023-05-10T23:39:27.529Z,19.27
2023-05-10T23:41:55.845Z,20.70
2023-05-10T23:44:23.653Z,19.40
2023-05-10T23:46:51.251Z,19.10
2023-05-10T23:49:19.174Z,19.20
2023-05-10T23:51:48.114Z,20.63
2023-05-10T23:54:15.737Z,22.20
2023-05-10T23:56:43.254Z,20.90
2023-05-10T23:59:11.011Z,23.27
